sensor_id;sensor_type;location;lat;lon;timestamp;pressure;altitude;pressure_sealevel;temperature;humidity
72262;BME280;60173;52.112;8.648;2023-09-12T00:00:23;100249.75;;;20.40;84.16
72262;BME280;60173;52.112;8.648;2023-09-12T00:02:50;100240.53;;;20.28;84.91
72262;BME280;60173;52.112;8.648;2023-09-12T00:05:17;100243.44;;;20.39;84.71
72262;BME280;60173;52.112;8.648;2023-09-12T00:07:43;100231.88;;;20.30;84.36
72262;BME280;60173;52.112;8.648;2023-09-12T00:10:09;100229.34;;;20.21;85.23
72262;BME280;60173;52.112;8.648;2023-09-12T00:12:36;100237.03;;;20.31;85.04
72262;BME280;60173;52.112;8.648;2023-09-12T00:15:03;100237.63;;;20.21;85.24
72262;BME280;60173;52.112;8.648;2023-09-12T00:17:29;100239.97;;;20.19;85.37
72262;BME280;60173;52.112;8.648;2023-09-12T00:19:56;100239.09;;;20.15;86.00
72262;BME280;60173;52.112;8.648;2023-09-12T00:22:22;100230.97;;;20.22;85.61
72262;BME280;60173;52.112;8.648;2023-09-12T00:24:48;100235.34;;;20.27;85.24
72262;BME280;60173;52.112;8.648;2023-09-12T00:27:15;100229.34;;;20.21;86.09
72262;BME280;60173;52.112;8.648;2023-09-12T00:29:41;100226.78;;;20.32;85.42
72262;BME280;60173;52.112;8.648;2023-09-12T00:32:08;100219.91;;;20.45;84.78
72262;BME280;60173;52.112;8.648;2023-09-12T00:34:34;100218.78;;;20.50;84.35
72262;BME280;60173;52.112;8.648;2023-09-12T00:37:00;100226.00;;;20.54;83.95
72262;BME280;60173;52.112;8.648;2023-09-12T00:39:27;100221.44;;;20.43;84.62
72262;BME280;60173;52.112;8.648;2023-09-12T00:41:53;100222.50;;;20.35;85.07
72262;BME280;60173;52.112;8.648;2023-09-12T00:44:20;100219.84;;;20.42;84.81
72262;BME280;60173;52.112;8.648;2023-09-12T00:46:47;100218.31;;;20.44;84.54
72262;BME280;60173;52.112;8.648;2023-09-12T00:49:16;100224.72;;;20.52;84.48
72262;BME280;60173;52.112;8.648;2023-09-12T00:51:44;100210.06;;;20.48;84.38
72262;BME280;60173;52.112;8.648;2023-09-12T00:54:11;100209.31;;;20.24;86.14
72262;BME280;60173;52.112;8.648;2023-09-12T00:56:38;100218.63;;;20.16;86.84
72262;BME280;60173;52.112;8.648;2023-09-12T00:59:04;100221.72;;;20.11;87.13
72262;BME280;60173;52.112;8.648;2023-09-12T01:01:32;100228.13;;;20.19;87.10
72262;BME280;60173;52.112;8.648;2023-09-12T01:03:59;100233.28;;;20.20;86.91
72262;BME280;60173;52.112;8.648;2023-09-12T01:06:27;100243.88;;;20.18;87.50
72262;BME280;60173;52.112;8.648;2023-09-12T01:08:55;100268.41;;;20.23;87.38
72262;BME280;60173;52.112;8.648;2023-09-12T01:11:21;100309.41;;;19.82;88.75
72262;BME280;60173;52.112;8.648;2023-09-12T01:13:48;100319.94;;;19.61;90.93
72262;BME280;60173;52.112;8.648;2023-09-12T01:16:15;100290.47;;;19.42;92.75
72262;BME280;60173;52.112;8.648;2023-09-12T01:18:41;100293.44;;;19.33;93.92
72262;BME280;60173;52.112;8.648;2023-09-12T01:21:17;100308.78;;;19.34;94.81
72262;BME280;60173;52.112;8.648;2023-09-12T01:29:02;100305.31;;;19.37;95.16
72262;BME280;60173;52.112;8.648;2023-09-12T01:31:29;100299.38;;;19.35;96.58
72262;BME280;60173;52.112;8.648;2023-09-12T01:33:56;100286.59;;;19.47;95.78
72262;BME280;60173;52.112;8.648;2023-09-12T01:36:23;100272.75;;;19.24;98.05
72262;BME280;60173;52.112;8.648;2023-09-12T01:38:49;100271.03;;;19.15;99.36
72262;BME280;60173;52.112;8.648;2023-09-12T01:41:16;100262.41;;;19.17;99.36
72262;BME280;60173;52.112;8.648;2023-09-12T01:43:43;100258.06;;;19.16;99.49
72262;BME280;60173;52.112;8.648;2023-09-12T01:46:09;100265.31;;;19.24;99.38
72262;BME280;60173;52.112;8.648;2023-09-12T01:48:36;100277.03;;;19.21;100.00
72262;BME280;60173;52.112;8.648;2023-09-12T01:51:04;100276.47;;;19.51;98.84
72262;BME280;60173;52.112;8.648;2023-09-12T01:53:33;100270.47;;;19.64;97.93
72262;BME280;60173;52.112;8.648;2023-09-12T01:56:00;100267.56;;;19.77;97.40
72262;BME280;60173;52.112;8.648;2023-09-12T01:58:28;100266.81;;;19.99;95.46
72262;BME280;60173;52.112;8.648;2023-09-12T02:00:55;100271.34;;;20.11;95.10
72262;BME280;60173;52.112;8.648;2023-09-12T02:03:21;100279.97;;;20.09;94.39
72262;BME280;60173;52.112;8.648;2023-09-12T02:05:48;100277.59;;;20.08;94.70
72262;BME280;60173;52.112;8.648;2023-09-12T02:08:14;100285.28;;;19.99;95.56
72262;BME280;60173;52.112;8.648;2023-09-12T02:10:40;100287.25;;;19.98;95.51
72262;BME280;60173;52.112;8.648;2023-09-12T02:13:07;100270.56;;;20.11;95.21
72262;BME280;60173;52.112;8.648;2023-09-12T02:15:33;100266.56;;;20.08;94.72
72262;BME280;60173;52.112;8.648;2023-09-12T02:18:00;100282.84;;;19.94;95.41
72262;BME280;60173;52.112;8.648;2023-09-12T02:20:26;100275.88;;;20.00;95.35
72262;BME280;60173;52.112;8.648;2023-09-12T02:22:53;100286.16;;;20.03;95.47
72262;BME280;60173;52.112;8.648;2023-09-12T02:25:19;100297.47;;;19.98;95.37
72262;BME280;60173;52.112;8.648;2023-09-12T02:27:45;100316.53;;;20.06;94.98
72262;BME280;60173;52.112;8.648;2023-09-12T02:30:12;100341.00;;;20.08;95.48
72262;BME280;60173;52.112;8.648;2023-09-12T02:32:41;100354.91;;;20.15;94.59
72262;BME280;60173;52.112;8.648;2023-09-12T02:35:08;100397.16;;;20.00;95.96
72262;BME280;60173;52.112;8.648;2023-09-12T02:37:34;100404.75;;;19.52;99.79
72262;BME280;60173;52.112;8.648;2023-09-12T02:40:01;100400.38;;;19.31;100.00
72262;BME280;60173;52.112;8.648;2023-09-12T02:42:28;100393.41;;;19.37;100.00
72262;BME280;60173;52.112;8.648;2023-09-12T02:44:54;100395.19;;;19.46;100.00
72262;BME280;60173;52.112;8.648;2023-09-12T02:47:21;100408.09;;;19.61;100.00
72262;BME280;60173;52.112;8.648;2023-09-12T02:49:47;100389.63;;;19.61;100.00
72262;BME280;60173;52.112;8.648;2023-09-12T02:52:13;100401.22;;;19.51;100.00
72262;BME280;60173;52.112;8.648;2023-09-12T02:54:40;100380.25;;;19.47;100.00
72262;BME280;60173;52.112;8.648;2023-09-12T02:57:06;100362.53;;;19.28;100.00
72262;BME280;60173;52.112;8.648;2023-09-12T02:59:33;100315.38;;;19.30;100.00
72262;BME280;60173;52.112;8.648;2023-09-12T03:01:59;100275.03;;;19.18;100.00
72262;BME280;60173;52.112;8.648;2023-09-12T03:04:25;100240.09;;;19.22;100.00
72262;BME280;60173;52.112;8.648;2023-09-12T03:06:52;100236.03;;;19.16;100.00
72262;BME280;60173;52.112;8.648;2023-09-12T03:09:18;100230.97;;;19.18;100.00
72262;BME280;60173;52.112;8.648;2023-09-12T03:11:45;100219.78;;;19.11;100.00
72262;BME280;60173;52.112;8.648;2023-09-12T03:14:11;100220.53;;;19.08;100.00
72262;BME280;60173;52.112;8.648;2023-09-12T03:16:38;100222.50;;;19.27;100.00
72262;BME280;60173;52.112;8.648;2023-09-12T03:19:04;100220.22;;;19.52;100.00
72262;BME280;60173;52.112;8.648;2023-09-12T03:21:30;100217.06;;;19.30;100.00
72262;BME280;60173;52.112;8.648;2023-09-12T03:23:57;100227.63;;;19.48;100.00
72262;BME280;60173;52.112;8.648;2023-09-12T03:26:23;100240.50;;;19.82;98.50
72262;BME280;60173;52.112;8.648;2023-09-12T03:28:50;100253.16;;;19.87;97.50
72262;BME280;60173;52.112;8.648;2023-09-12T03:31:16;100248.78;;;19.82;97.11
72262;BME280;60173;52.112;8.648;2023-09-12T03:33:43;100259.03;;;20.05;96.09
72262;BME280;60173;52.112;8.648;2023-09-12T03:36:09;100265.88;;;20.15;94.93
72262;BME280;60173;52.112;8.648;2023-09-12T03:38:36;100255.88;;;20.06;94.22
72262;BME280;60173;52.112;8.648;2023-09-12T03:41:02;100255.25;;;19.71;95.15
72262;BME280;60173;52.112;8.648;2023-09-12T03:43:29;100255.16;;;19.67;96.14
72262;BME280;60173;52.112;8.648;2023-09-12T03:45:56;100248.72;;;19.59;96.14
72262;BME280;60173;52.112;8.648;2023-09-12T03:48:22;100264.84;;;19.61;97.75
72262;BME280;60173;52.112;8.648;2023-09-12T03:50:49;100281.22;;;19.93;95.43
72262;BME280;60173;52.112;8.648;2023-09-12T03:53:15;100317.44;;;19.91;95.03
72262;BME280;60173;52.112;8.648;2023-09-12T03:55:43;100355.34;;;19.98;95.17
72262;BME280;60173;52.112;8.648;2023-09-12T03:58:09;100364.94;;;19.65;96.48
72262;BME280;60173;52.112;8.648;2023-09-12T04:00:36;100329.53;;;19.48;97.97
72262;BME280;60173;52.112;8.648;2023-09-12T04:03:02;100346.06;;;19.67;96.73
72262;BME280;60173;52.112;8.648;2023-09-12T04:05:29;100384.22;;;19.84;96.09
72262;BME280;60173;52.112;8.648;2023-09-12T04:07:55;100351.88;;;19.81;95.55
72262;BME280;60173;52.112;8.648;2023-09-12T04:10:22;100338.31;;;19.92;94.91
72262;BME280;60173;52.112;8.648;2023-09-12T04:12:48;100336.56;;;19.84;95.67
72262;BME280;60173;52.112;8.648;2023-09-12T04:15:15;100349.72;;;19.91;94.43
72262;BME280;60173;52.112;8.648;2023-09-12T04:17:41;100348.25;;;19.97;95.21
72262;BME280;60173;52.112;8.648;2023-09-12T04:20:08;100341.75;;;19.66;92.85
72262;BME280;60173;52.112;8.648;2023-09-12T04:22:34;100277.47;;;19.04;95.91
72262;BME280;60173;52.112;8.648;2023-09-12T04:25:01;100270.19;;;18.95;96.70
72262;BME280;60173;52.112;8.648;2023-09-12T04:27:27;100255.59;;;19.30;96.10
72262;BME280;60173;52.112;8.648;2023-09-12T04:29:54;100269.84;;;19.16;97.20
72262;BME280;60173;52.112;8.648;2023-09-12T04:32:20;100291.47;;;19.34;98.07
72262;BME280;60173;52.112;8.648;2023-09-12T04:34:47;100290.69;;;19.33;98.36
72262;BME280;60173;52.112;8.648;2023-09-12T04:37:13;100318.56;;;19.32;99.19
72262;BME280;60173;52.112;8.648;2023-09-12T04:39:39;100308.34;;;18.97;99.11
72262;BME280;60173;52.112;8.648;2023-09-12T04:42:06;100303.28;;;18.99;98.44
72262;BME280;60173;52.112;8.648;2023-09-12T04:44:36;100308.13;;;18.86;100.00
72262;BME280;60173;52.112;8.648;2023-09-12T04:47:03;100304.97;;;19.04;100.00
72262;BME280;60173;52.112;8.648;2023-09-12T04:49:29;100314.34;;;19.18;100.00
72262;BME280;60173;52.112;8.648;2023-09-12T04:51:56;100339.75;;;19.12;100.00
72262;BME280;60173;52.112;8.648;2023-09-12T04:54:22;100324.25;;;19.04;100.00
72262;BME280;60173;52.112;8.648;2023-09-12T04:56:49;100308.03;;;18.83;96.78
72262;BME280;60173;52.112;8.648;2023-09-12T04:59:15;100310.56;;;18.91;100.00
72262;BME280;60173;52.112;8.648;2023-09-12T05:01:42;100284.16;;;19.06;100.00
72262;BME280;60173;52.112;8.648;2023-09-12T05:04:08;100310.91;;;19.06;99.84
72262;BME280;60173;52.112;8.648;2023-09-12T05:06:35;100327.53;;;19.09;100.00
72262;BME280;60173;52.112;8.648;2023-09-12T05:09:01;100321.91;;;19.06;100.00
72262;BME280;60173;52.112;8.648;2023-09-12T05:11:28;100302.94;;;19.01;100.00
72262;BME280;60173;52.112;8.648;2023-09-12T05:13:54;100283.22;;;18.99;100.00
72262;BME280;60173;52.112;8.648;2023-09-12T05:16:20;100291.63;;;19.06;99.81
72262;BME280;60173;52.112;8.648;2023-09-12T05:18:47;100313.78;;;18.93;99.12
72262;BME280;60173;52.112;8.648;2023-09-12T05:21:13;100309.31;;;19.05;100.00
72262;BME280;60173;52.112;8.648;2023-09-12T05:23:40;100293.53;;;19.02;99.39
72262;BME280;60173;52.112;8.648;2023-09-12T05:26:06;100295.09;;;19.03;99.14
72262;BME280;60173;52.112;8.648;2023-09-12T05:28:34;100286.84;;;19.03;99.34
72262;BME280;60173;52.112;8.648;2023-09-12T05:31:00;100282.50;;;19.02;100.00
72262;BME280;60173;52.112;8.648;2023-09-12T05:33:27;100284.38;;;18.97;98.86
72262;BME280;60173;52.112;8.648;2023-09-12T05:35:54;100291.63;;;18.86;99.75
72262;BME280;60173;52.112;8.648;2023-09-12T05:38:20;100279.97;;;18.77;99.72
72262;BME280;60173;52.112;8.648;2023-09-12T05:40:47;100278.66;;;18.87;100.00
72262;BME280;60173;52.112;8.648;2023-09-12T05:43:13;100280.69;;;18.90;98.41
72262;BME280;60173;52.112;8.648;2023-09-12T05:45:39;100292.47;;;18.90;99.35
72262;BME280;60173;52.112;8.648;2023-09-12T05:48:06;100290.97;;;18.93;99.88
72262;BME280;60173;52.112;8.648;2023-09-12T05:50:32;100274.53;;;18.96;97.58
72262;BME280;60173;52.112;8.648;2023-09-12T05:52:59;100280.59;;;18.86;98.32
72262;BME280;60173;52.112;8.648;2023-09-12T05:55:25;100268.56;;;18.75;98.02
72262;BME280;60173;52.112;8.648;2023-09-12T05:57:52;100259.50;;;18.59;98.42
72262;BME280;60173;52.112;8.648;2023-09-12T06:00:18;100261.00;;;18.56;100.00
72262;BME280;60173;52.112;8.648;2023-09-12T06:02:46;100242.88;;;18.71;100.00
72262;BME280;60173;52.112;8.648;2023-09-12T06:05:13;100213.53;;;18.75;99.74
72262;BME280;60173;52.112;8.648;2023-09-12T06:07:40;100203.47;;;18.16;100.00
72262;BME280;60173;52.112;8.648;2023-09-12T06:10:08;100233.59;;;18.28;100.00
72262;BME280;60173;52.112;8.648;2023-09-12T06:12:34;100214.44;;;18.47;100.00
72262;BME280;60173;52.112;8.648;2023-09-12T06:15:01;100194.34;;;18.12;100.00
72262;BME280;60173;52.112;8.648;2023-09-12T06:17:28;100215.34;;;17.88;100.00
72262;BME280;60173;52.112;8.648;2023-09-12T06:19:54;100232.03;;;18.11;100.00
72262;BME280;60173;52.112;8.648;2023-09-12T06:22:21;100261.03;;;18.40;100.00
72262;BME280;60173;52.112;8.648;2023-09-12T06:24:47;100242.00;;;18.67;100.00
72262;BME280;60173;52.112;8.648;2023-09-12T06:27:14;100214.50;;;18.67;100.00
72262;BME280;60173;52.112;8.648;2023-09-12T06:29:40;100204.94;;;18.61;100.00
72262;BME280;60173;52.112;8.648;2023-09-12T06:32:07;100197.41;;;18.58;99.66
72262;BME280;60173;52.112;8.648;2023-09-12T06:34:33;100194.28;;;18.59;100.00
72262;BME280;60173;52.112;8.648;2023-09-12T06:36:59;100206.59;;;18.65;100.00
72262;BME280;60173;52.112;8.648;2023-09-12T06:39:26;100206.78;;;18.57;100.00
72262;BME280;60173;52.112;8.648;2023-09-12T06:41:52;100227.19;;;18.56;100.00
72262;BME280;60173;52.112;8.648;2023-09-12T06:44:20;100224.00;;;18.69;100.00
72262;BME280;60173;52.112;8.648;2023-09-12T06:46:47;100215.13;;;18.60;100.00
72262;BME280;60173;52.112;8.648;2023-09-12T06:49:13;100207.16;;;18.55;100.00
72262;BME280;60173;52.112;8.648;2023-09-12T06:51:39;100203.41;;;18.63;100.00
72262;BME280;60173;52.112;8.648;2023-09-12T06:54:06;100206.06;;;18.60;100.00
72262;BME280;60173;52.112;8.648;2023-09-12T06:56:32;100221.22;;;18.34;100.00
72262;BME280;60173;52.112;8.648;2023-09-12T06:58:59;100221.63;;;18.36;100.00
72262;BME280;60173;52.112;8.648;2023-09-12T07:01:25;100233.69;;;18.47;100.00
72262;BME280;60173;52.112;8.648;2023-09-12T07:03:52;100241.28;;;18.54;100.00
72262;BME280;60173;52.112;8.648;2023-09-12T07:06:18;100255.56;;;18.60;100.00
72262;BME280;60173;52.112;8.648;2023-09-12T07:08:45;100286.47;;;18.37;100.00
72262;BME280;60173;52.112;8.648;2023-09-12T07:11:11;100320.72;;;18.56;100.00
72262;BME280;60173;52.112;8.648;2023-09-12T07:13:38;100336.50;;;18.43;100.00
72262;BME280;60173;52.112;8.648;2023-09-12T07:16:04;100329.31;;;18.38;100.00
72262;BME280;60173;52.112;8.648;2023-09-12T07:18:31;100316.19;;;18.47;100.00
72262;BME280;60173;52.112;8.648;2023-09-12T07:21:03;100308.63;;;18.44;100.00
72262;BME280;60173;52.112;8.648;2023-09-12T07:23:30;100315.19;;;18.40;100.00
72262;BME280;60173;52.112;8.648;2023-09-12T07:25:57;100332.56;;;18.28;100.00
72262;BME280;60173;52.112;8.648;2023-09-12T07:28:24;100337.50;;;18.06;100.00
72262;BME280;60173;52.112;8.648;2023-09-12T07:30:51;100325.16;;;17.72;100.00
72262;BME280;60173;52.112;8.648;2023-09-12T07:33:18;100326.38;;;17.47;100.00
72262;BME280;60173;52.112;8.648;2023-09-12T07:35:44;100336.13;;;17.32;100.00
72262;BME280;60173;52.112;8.648;2023-09-12T07:38:11;100335.75;;;17.46;100.00
72262;BME280;60173;52.112;8.648;2023-09-12T07:40:37;100320.47;;;17.32;100.00
72262;BME280;60173;52.112;8.648;2023-09-12T07:43:03;100339.34;;;17.34;100.00
72262;BME280;60173;52.112;8.648;2023-09-12T07:45:30;100342.41;;;17.32;100.00
72262;BME280;60173;52.112;8.648;2023-09-12T07:47:56;100357.84;;;17.49;100.00
72262;BME280;60173;52.112;8.648;2023-09-12T07:50:23;100337.69;;;17.57;100.00
72262;BME280;60173;52.112;8.648;2023-09-12T07:52:49;100333.72;;;17.43;100.00
72262;BME280;60173;52.112;8.648;2023-09-12T07:55:16;100318.09;;;17.31;100.00
72262;BME280;60173;52.112;8.648;2023-09-12T07:57:42;100343.84;;;17.14;100.00
72262;BME280;60173;52.112;8.648;2023-09-12T08:00:09;100362.00;;;17.31;100.00
72262;BME280;60173;52.112;8.648;2023-09-12T08:02:36;100369.53;;;17.34;100.00
72262;BME280;60173;52.112;8.648;2023-09-12T08:05:04;100399.97;;;17.29;100.00
72262;BME280;60173;52.112;8.648;2023-09-12T08:07:30;100375.69;;;17.43;100.00
72262;BME280;60173;52.112;8.648;2023-09-12T08:09:57;100340.97;;;17.10;100.00
72262;BME280;60173;52.112;8.648;2023-09-12T08:12:26;100299.63;;;16.66;100.00
72262;BME280;60173;52.112;8.648;2023-09-12T08:14:53;100298.47;;;16.55;100.00
72262;BME280;60173;52.112;8.648;2023-09-12T08:17:22;100315.47;;;16.73;100.00
72262;BME280;60173;52.112;8.648;2023-09-12T08:19:48;100375.97;;;17.13;100.00
72262;BME280;60173;52.112;8.648;2023-09-12T08:22:16;100428.31;;;17.21;100.00
72262;BME280;60173;52.112;8.648;2023-09-12T08:24:42;100445.81;;;17.28;100.00
72262;BME280;60173;52.112;8.648;2023-09-12T08:27:09;100470.41;;;17.25;100.00
72262;BME280;60173;52.112;8.648;2023-09-12T08:29:35;100440.44;;;17.32;100.00
72262;BME280;60173;52.112;8.648;2023-09-12T08:32:02;100453.47;;;17.23;100.00
72262;BME280;60173;52.112;8.648;2023-09-12T08:34:29;100468.81;;;17.36;100.00
72262;BME280;60173;52.112;8.648;2023-09-12T08:36:55;100469.47;;;17.57;100.00
72262;BME280;60173;52.112;8.648;2023-09-12T08:39:26;100502.31;;;17.54;100.00
72262;BME280;60173;52.112;8.648;2023-09-12T08:41:53;100492.81;;;17.63;100.00
72262;BME280;60173;52.112;8.648;2023-09-12T08:44:20;100478.16;;;17.47;100.00
72262;BME280;60173;52.112;8.648;2023-09-12T08:46:47;100470.75;;;17.48;100.00
72262;BME280;60173;52.112;8.648;2023-09-12T08:49:14;100463.78;;;17.50;100.00
72262;BME280;60173;52.112;8.648;2023-09-12T08:51:41;100448.09;;;17.51;100.00
72262;BME280;60173;52.112;8.648;2023-09-12T08:54:08;100447.66;;;17.36;100.00
72262;BME280;60173;52.112;8.648;2023-09-12T08:56:36;100460.91;;;17.10;100.00
72262;BME280;60173;52.112;8.648;2023-09-12T08:59:05;100473.50;;;17.48;100.00
72262;BME280;60173;52.112;8.648;2023-09-12T09:01:33;100460.31;;;17.66;100.00
72262;BME280;60173;52.112;8.648;2023-09-12T09:04:02;100463.66;;;17.59;100.00
72262;BME280;60173;52.112;8.648;2023-09-12T09:06:30;100454.84;;;17.66;100.00
72262;BME280;60173;52.112;8.648;2023-09-12T09:08:58;100445.34;;;17.63;100.00
72262;BME280;60173;52.112;8.648;2023-09-12T09:11:24;100418.91;;;17.71;100.00
72262;BME280;60173;52.112;8.648;2023-09-12T09:13:51;100428.53;;;17.52;100.00
72262;BME280;60173;52.112;8.648;2023-09-12T09:16:18;100459.84;;;17.76;100.00
72262;BME280;60173;52.112;8.648;2023-09-12T09:19:02;100451.03;;;17.95;100.00
72262;BME280;60173;52.112;8.648;2023-09-12T09:21:31;100412.97;;;17.56;100.00
72262;BME280;60173;52.112;8.648;2023-09-12T09:23:59;100378.81;;;17.70;100.00
72262;BME280;60173;52.112;8.648;2023-09-12T09:26:47;100408.16;;;17.66;100.00
72262;BME280;60173;52.112;8.648;2023-09-12T09:29:18;100444.06;;;17.85;100.00
72262;BME280;60173;52.112;8.648;2023-09-12T09:31:47;100447.91;;;17.96;100.00
72262;BME280;60173;52.112;8.648;2023-09-12T09:34:18;100440.22;;;18.02;100.00
72262;BME280;60173;52.112;8.648;2023-09-12T09:36:50;100435.75;;;18.10;100.00
72262;BME280;60173;52.112;8.648;2023-09-12T09:39:18;100406.16;;;18.19;100.00
72262;BME280;60173;52.112;8.648;2023-09-12T09:41:49;100416.72;;;18.17;100.00
72262;BME280;60173;52.112;8.648;2023-09-12T09:44:16;100429.94;;;18.27;100.00
72262;BME280;60173;52.112;8.648;2023-09-12T09:46:43;100458.06;;;18.36;100.00
72262;BME280;60173;52.112;8.648;2023-09-12T09:49:11;100455.56;;;18.31;100.00
72262;BME280;60173;52.112;8.648;2023-09-12T09:51:41;100427.75;;;18.33;100.00
72262;BME280;60173;52.112;8.648;2023-09-12T09:54:08;100385.00;;;18.35;100.00
72262;BME280;60173;52.112;8.648;2023-09-12T09:56:52;100357.66;;;17.82;100.00
72262;BME280;60173;52.112;8.648;2023-09-12T09:59:24;100373.59;;;17.52;100.00
72262;BME280;60173;52.112;8.648;2023-09-12T10:01:56;100400.56;;;17.87;100.00
72262;BME280;60173;52.112;8.648;2023-09-12T10:04:23;100399.38;;;18.00;100.00
72262;BME280;60173;52.112;8.648;2023-09-12T10:06:50;100394.06;;;18.07;100.00
72262;BME280;60173;52.112;8.648;2023-09-12T10:09:18;100394.50;;;18.10;100.00
72262;BME280;60173;52.112;8.648;2023-09-12T10:11:49;100386.91;;;18.19;100.00
72262;BME280;60173;52.112;8.648;2023-09-12T10:14:19;100395.44;;;18.29;100.00
72262;BME280;60173;52.112;8.648;2023-09-12T10:16:48;100424.75;;;18.38;100.00
72262;BME280;60173;52.112;8.648;2023-09-12T10:19:16;100451.13;;;18.26;100.00
72262;BME280;60173;52.112;8.648;2023-09-12T10:24:30;100420.53;;;18.28;100.00
72262;BME280;60173;52.112;8.648;2023-09-12T10:26:58;100412.25;;;18.12;100.00
72262;BME280;60173;52.112;8.648;2023-09-12T10:29:24;100411.94;;;18.29;100.00
72262;BME280;60173;52.112;8.648;2023-09-12T10:31:51;100409.91;;;18.42;100.00
72262;BME280;60173;52.112;8.648;2023-09-12T10:34:18;100406.22;;;18.50;100.00
72262;BME280;60173;52.112;8.648;2023-09-12T10:36:45;100401.44;;;18.47;100.00
72262;BME280;60173;52.112;8.648;2023-09-12T10:39:13;100408.03;;;18.30;100.00
72262;BME280;60173;52.112;8.648;2023-09-12T10:41:41;100425.84;;;18.21;100.00
72262;BME280;60173;52.112;8.648;2023-09-12T10:44:14;100426.72;;;18.25;100.00
72262;BME280;60173;52.112;8.648;2023-09-12T10:46:42;100423.25;;;18.40;100.00
72262;BME280;60173;52.112;8.648;2023-09-12T10:49:12;100429.88;;;18.39;100.00
72262;BME280;60173;52.112;8.648;2023-09-12T10:51:44;100410.31;;;18.57;100.00
72262;BME280;60173;52.112;8.648;2023-09-12T10:54:15;100402.13;;;18.44;100.00
72262;BME280;60173;52.112;8.648;2023-09-12T10:56:42;100396.63;;;18.44;100.00
72262;BME280;60173;52.112;8.648;2023-09-12T10:59:09;100391.97;;;18.61;100.00
72262;BME280;60173;52.112;8.648;2023-09-12T11:01:36;100383.16;;;18.71;100.00
72262;BME280;60173;52.112;8.648;2023-09-12T11:06:46;100391.97;;;18.77;100.00
72262;BME280;60173;52.112;8.648;2023-09-12T11:09:23;100379.38;;;18.76;100.00
72262;BME280;60173;52.112;8.648;2023-09-12T11:12:02;100375.88;;;18.63;100.00
72262;BME280;60173;52.112;8.648;2023-09-12T11:14:29;100376.44;;;19.16;100.00
72262;BME280;60173;52.112;8.648;2023-09-12T11:19:48;100379.31;;;19.74;99.44
72262;BME280;60173;52.112;8.648;2023-09-12T11:22:28;100374.94;;;19.93;96.88
72262;BME280;60173;52.112;8.648;2023-09-12T11:24:55;100372.03;;;20.47;93.76
72262;BME280;60173;52.112;8.648;2023-09-12T11:27:23;100370.69;;;20.57;93.61
72262;BME280;60173;52.112;8.648;2023-09-12T11:29:50;100365.41;;;20.71;92.43
72262;BME280;60173;52.112;8.648;2023-09-12T11:32:27;100353.78;;;20.62;91.84
72262;BME280;60173;52.112;8.648;2023-09-12T11:34:56;100365.47;;;21.02;91.95
72262;BME280;60173;52.112;8.648;2023-09-12T11:37:24;100366.47;;;21.16;91.32
72262;BME280;60173;52.112;8.648;2023-09-12T11:39:52;100361.38;;;21.45;91.10
72262;BME280;60173;52.112;8.648;2023-09-12T11:42:19;100368.31;;;21.62;90.14
72262;BME280;60173;52.112;8.648;2023-09-12T11:44:46;100370.47;;;21.46;89.13
72262;BME280;60173;52.112;8.648;2023-09-12T11:47:12;100360.28;;;21.83;88.85
72262;BME280;60173;52.112;8.648;2023-09-12T11:49:40;100370.09;;;22.11;86.26
72262;BME280;60173;52.112;8.648;2023-09-12T11:52:10;100364.59;;;22.48;84.45
72262;BME280;60173;52.112;8.648;2023-09-12T11:54:39;100365.16;;;22.27;85.61
72262;BME280;60173;52.112;8.648;2023-09-12T11:57:07;100363.09;;;22.21;86.06
72262;BME280;60173;52.112;8.648;2023-09-12T11:59:37;100367.78;;;22.17;86.92
72262;BME280;60173;52.112;8.648;2023-09-12T12:02:09;100366.22;;;21.82;85.84
72262;BME280;60173;52.112;8.648;2023-09-12T12:04:36;100367.03;;;21.86;86.75
72262;BME280;60173;52.112;8.648;2023-09-12T12:07:04;100361.22;;;21.95;86.44
72262;BME280;60173;52.112;8.648;2023-09-12T12:09:31;100364.09;;;21.72;86.87
72262;BME280;60173;52.112;8.648;2023-09-12T12:12:23;100362.59;;;21.78;87.28
72262;BME280;60173;52.112;8.648;2023-09-12T12:14:50;100366.88;;;22.39;84.17
72262;BME280;60173;52.112;8.648;2023-09-12T12:17:16;100363.38;;;22.49;83.13
72262;BME280;60173;52.112;8.648;2023-09-12T12:19:45;100362.16;;;22.43;82.47
72262;BME280;60173;52.112;8.648;2023-09-12T12:22:12;100361.53;;;22.64;82.88
72262;BME280;60173;52.112;8.648;2023-09-12T12:24:45;100346.44;;;23.02;80.54
72262;BME280;60173;52.112;8.648;2023-09-12T12:27:11;100348.59;;;23.27;80.84
72262;BME280;60173;52.112;8.648;2023-09-12T12:29:41;100342.34;;;23.52;76.97
72262;BME280;60173;52.112;8.648;2023-09-12T12:32:07;100337.41;;;23.13;81.03
72262;BME280;60173;52.112;8.648;2023-09-12T12:34:34;100338.63;;;23.19;77.45
72262;BME280;60173;52.112;8.648;2023-09-12T12:37:20;100347.81;;;23.37;79.69
72262;BME280;60173;52.112;8.648;2023-09-12T12:39:47;100336.09;;;23.69;78.31
72262;BME280;60173;52.112;8.648;2023-09-12T12:42:13;100332.66;;;24.01;76.76
72262;BME280;60173;52.112;8.648;2023-09-12T12:44:40;100327.56;;;24.10;74.35
72262;BME280;60173;52.112;8.648;2023-09-12T12:47:08;100327.63;;;24.49;74.03
72262;BME280;60173;52.112;8.648;2023-09-12T12:49:38;100321.63;;;24.29;71.78
72262;BME280;60173;52.112;8.648;2023-09-12T12:52:05;100319.75;;;23.42;76.35
72262;BME280;60173;52.112;8.648;2023-09-12T12:54:32;100313.78;;;23.33;79.55
72262;BME280;60173;52.112;8.648;2023-09-12T12:57:00;100314.56;;;23.30;77.35
72262;BME280;60173;52.112;8.648;2023-09-12T12:59:26;100314.69;;;23.59;78.76